sensor_id;sensor_type;location;lat;lon;timestamp;temperature;humidity
19258;DHT22;9763;48.780;9.212;2024-03-02T00:03:15;10.30;70.60
19258;DHT22;9763;48.780;9.212;2024-03-02T00:06:40;10.30;70.60
19258;DHT22;9763;48.780;9.212;2024-03-02T00:10:09;10.30;70.50
19258;DHT22;9763;48.780;9.212;2024-03-02T00:13:34;10.30;70.50
19258;DHT22;9763;48.780;9.212;2024-03-02T00:16:59;10.30;70.40
19258;DHT22;9763;48.780;9.212;2024-03-02T00:20:24;10.30;70.40
19258;DHT22;9763;48.780;9.212;2024-03-02T00:23:50;10.30;70.40
19258;DHT22;9763;48.780;9.212;2024-03-02T00:27:15;10.20;70.20
19258;DHT22;9763;48.780;9.212;2024-03-02T00:30:58;10.20;70.30
19258;DHT22;9763;48.780;9.212;2024-03-02T00:34:24;10.10;70.20
19258;DHT22;9763;48.780;9.212;2024-03-02T00:37:48;10.10;70.10
19258;DHT22;9763;48.780;9.212;2024-03-02T00:41:19;10.00;70.30
19258;DHT22;9763;48.780;9.212;2024-03-02T00:44:45;10.00;70.30
19258;DHT22;9763;48.780;9.212;2024-03-02T00:48:10;9.90;71.40
19258;DHT22;9763;48.780;9.212;2024-03-02T00:51:34;10.00;70.40
19258;DHT22;9763;48.780;9.212;2024-03-02T00:54:58;9.90;71.50
19258;DHT22;9763;48.780;9.212;2024-03-02T00:58:23;9.90;71.50
19258;DHT22;9763;48.780;9.212;2024-03-02T01:01:48;9.80;71.50
19258;DHT22;9763;48.780;9.212;2024-03-02T01:05:12;9.80;71.50
19258;DHT22;9763;48.780;9.212;2024-03-02T01:08:36;9.80;71.50
19258;DHT22;9763;48.780;9.212;2024-03-02T01:12:00;9.80;71.70
19258;DHT22;9763;48.780;9.212;2024-03-02T01:15:26;9.80;72.50
19258;DHT22;9763;48.780;9.212;2024-03-02T01:18:49;9.70;72.30
19258;DHT22;9763;48.780;9.212;2024-03-02T01:22:13;9.70;71.60
19258;DHT22;9763;48.780;9.212;2024-03-02T01:25:37;9.70;71.60
19258;DHT22;9763;48.780;9.212;2024-03-02T01:29:01;10.00;70.80
19258;DHT22;9763;48.780;9.212;2024-03-02T01:32:26;9.70;71.50
19258;DHT22;9763;48.780;9.212;2024-03-02T01:35:50;9.60;71.50
19258;DHT22;9763;48.780;9.212;2024-03-02T01:39:13;9.60;71.60
19258;DHT22;9763;48.780;9.212;2024-03-02T01:42:38;9.50;71.50
19258;DHT22;9763;48.780;9.212;2024-03-02T01:46:02;9.50;71.50
19258;DHT22;9763;48.780;9.212;2024-03-02T01:49:27;9.50;71.40
19258;DHT22;9763;48.780;9.212;2024-03-02T01:52:51;9.60;71.40
19258;DHT22;9763;48.780;9.212;2024-03-02T01:56:14;9.50;71.20
19258;DHT22;9763;48.780;9.212;2024-03-02T01:59:38;9.50;71.00
19258;DHT22;9763;48.780;9.212;2024-03-02T02:03:02;9.70;71.20
19258;DHT22;9763;48.780;9.212;2024-03-02T02:06:27;9.40;71.00
19258;DHT22;9763;48.780;9.212;2024-03-02T02:09:51;9.30;70.80
19258;DHT22;9763;48.780;9.212;2024-03-02T02:13:15;9.30;70.70
19258;DHT22;9763;48.780;9.212;2024-03-02T02:16:38;9.20;70.60
19258;DHT22;9763;48.780;9.212;2024-03-02T02:20:03;9.20;70.60
19258;DHT22;9763;48.780;9.212;2024-03-02T02:23:29;9.20;70.70
19258;DHT22;9763;48.780;9.212;2024-03-02T02:26:53;9.10;70.60
19258;DHT22;9763;48.780;9.212;2024-03-02T02:30:19;9.10;70.60
19258;DHT22;9763;48.780;9.212;2024-03-02T02:33:44;9.00;70.70
19258;DHT22;9763;48.780;9.212;2024-03-02T02:37:07;9.00;70.50
19258;DHT22;9763;48.780;9.212;2024-03-02T02:40:32;9.00;70.70
19258;DHT22;9763;48.780;9.212;2024-03-02T02:43:56;8.90;70.70
19258;DHT22;9763;48.780;9.212;2024-03-02T02:47:19;8.90;70.90
19258;DHT22;9763;48.780;9.212;2024-03-02T02:50:43;8.90;71.00
19258;DHT22;9763;48.780;9.212;2024-03-02T02:54:07;8.80;71.00
19258;DHT22;9763;48.780;9.212;2024-03-02T02:57:32;8.80;70.80
19258;DHT22;9763;48.780;9.212;2024-03-02T03:00:59;8.70;70.90
19258;DHT22;9763;48.780;9.212;2024-03-02T03:04:23;8.70;70.70
19258;DHT22;9763;48.780;9.212;2024-03-02T03:07:47;8.60;70.40
19258;DHT22;9763;48.780;9.212;2024-03-02T03:11:12;8.60;70.40
19258;DHT22;9763;48.780;9.212;2024-03-02T03:14:39;8.50;70.50
19258;DHT22;9763;48.780;9.212;2024-03-02T03:18:04;8.40;70.60
19258;DHT22;9763;48.780;9.212;2024-03-02T03:21:28;8.40;70.70
19258;DHT22;9763;48.780;9.212;2024-03-02T03:24:51;8.40;70.70
19258;DHT22;9763;48.780;9.212;2024-03-02T03:28:15;8.40;70.80
19258;DHT22;9763;48.780;9.212;2024-03-02T03:31:41;8.30;71.60
19258;DHT22;9763;48.780;9.212;2024-03-02T03:35:05;8.30;70.80
19258;DHT22;9763;48.780;9.212;2024-03-02T03:38:30;8.20;70.90
19258;DHT22;9763;48.780;9.212;2024-03-02T03:41:55;8.20;70.90
19258;DHT22;9763;48.780;9.212;2024-03-02T03:45:18;8.20;71.00
19258;DHT22;9763;48.780;9.212;2024-03-02T03:48:44;8.10;70.80
19258;DHT22;9763;48.780;9.212;2024-03-02T03:52:07;8.10;70.60
19258;DHT22;9763;48.780;9.212;2024-03-02T03:55:31;8.10;70.60
19258;DHT22;9763;48.780;9.212;2024-03-02T03:58:54;8.00;70.60
19258;DHT22;9763;48.780;9.212;2024-03-02T04:02:18;8.00;70.70
19258;DHT22;9763;48.780;9.212;2024-03-02T04:05:43;8.20;70.90
19258;DHT22;9763;48.780;9.212;2024-03-02T04:09:07;7.90;70.60
19258;DHT22;9763;48.780;9.212;2024-03-02T04:12:31;7.90;70.60
19258;DHT22;9763;48.780;9.212;2024-03-02T04:15:55;7.80;70.60
19258;DHT22;9763;48.780;9.212;2024-03-02T04:19:18;7.80;70.70
19258;DHT22;9763;48.780;9.212;2024-03-02T04:22:43;7.80;70.70
19258;DHT22;9763;48.780;9.212;2024-03-02T04:26:07;7.70;70.80
19258;DHT22;9763;48.780;9.212;2024-03-02T04:29:30;7.70;70.80
19258;DHT22;9763;48.780;9.212;2024-03-02T04:32:54;7.70;70.90
19258;DHT22;9763;48.780;9.212;2024-03-02T04:36:17;7.90;71.20
19258;DHT22;9763;48.780;9.212;2024-03-02T04:39:42;8.00;71.40
19258;DHT22;9763;48.780;9.212;2024-03-02T04:43:06;7.70;71.20
19258;DHT22;9763;48.780;9.212;2024-03-02T04:46:31;7.70;71.30
19258;DHT22;9763;48.780;9.212;2024-03-02T04:49:55;7.60;71.20
19258;DHT22;9763;48.780;9.212;2024-03-02T04:53:18;7.60;71.30
19258;DHT22;9763;48.780;9.212;2024-03-02T04:56:43;7.60;71.30
19258;DHT22;9763;48.780;9.212;2024-03-02T05:00:12;7.60;71.40
19258;DHT22;9763;48.780;9.212;2024-03-02T05:03:36;7.60;71.40
19258;DHT22;9763;48.780;9.212;2024-03-02T05:07:00;7.60;71.40
19258;DHT22;9763;48.780;9.212;2024-03-02T05:10:23;7.60;71.30
19258;DHT22;9763;48.780;9.212;2024-03-02T05:13:48;7.80;71.30
19258;DHT22;9763;48.780;9.212;2024-03-02T05:17:12;7.50;71.00
19258;DHT22;9763;48.780;9.212;2024-03-02T05:20:35;7.50;71.00
19258;DHT22;9763;48.780;9.212;2024-03-02T05:23:59;7.50;71.10
19258;DHT22;9763;48.780;9.212;2024-03-02T05:27:23;7.50;71.00
19258;DHT22;9763;48.780;9.212;2024-03-02T05:30:47;7.40;70.90
19258;DHT22;9763;48.780;9.212;2024-03-02T05:34:11;7.40;71.00
19258;DHT22;9763;48.780;9.212;2024-03-02T05:37:36;7.40;71.10
19258;DHT22;9763;48.780;9.212;2024-03-02T05:40:59;7.30;71.10
19258;DHT22;9763;48.780;9.212;2024-03-02T05:44:23;7.30;71.20
19258;DHT22;9763;48.780;9.212;2024-03-02T05:47:48;7.30;71.40
19258;DHT22;9763;48.780;9.212;2024-03-02T05:51:12;7.30;71.70
19258;DHT22;9763;48.780;9.212;2024-03-02T05:54:35;7.20;72.30
19258;DHT22;9763;48.780;9.212;2024-03-02T05:57:59;7.30;71.70
19258;DHT22;9763;48.780;9.212;2024-03-02T06:01:37;7.20;71.50
19258;DHT22;9763;48.780;9.212;2024-03-02T06:05:03;7.20;71.50
19258;DHT22;9763;48.780;9.212;2024-03-02T06:08:27;7.30;71.70
19258;DHT22;9763;48.780;9.212;2024-03-02T06:11:51;7.20;71.60
19258;DHT22;9763;48.780;9.212;2024-03-02T06:15:15;7.20;71.80
19258;DHT22;9763;48.780;9.212;2024-03-02T06:18:39;7.20;72.10
19258;DHT22;9763;48.780;9.212;2024-03-02T06:22:04;7.20;72.40
19258;DHT22;9763;48.780;9.212;2024-03-02T06:25:28;7.30;72.50
19258;DHT22;9763;48.780;9.212;2024-03-02T06:28:51;7.30;72.40
19258;DHT22;9763;48.780;9.212;2024-03-02T06:32:15;7.30;72.30
19258;DHT22;9763;48.780;9.212;2024-03-02T06:35:38;7.30;72.50
19258;DHT22;9763;48.780;9.212;2024-03-02T06:39:04;7.40;72.70
19258;DHT22;9763;48.780;9.212;2024-03-02T06:42:27;7.40;72.70
19258;DHT22;9763;48.780;9.212;2024-03-02T06:45:55;7.40;72.90
19258;DHT22;9763;48.780;9.212;2024-03-02T06:49:19;7.50;73.10
19258;DHT22;9763;48.780;9.212;2024-03-02T06:52:42;7.50;73.30
19258;DHT22;9763;48.780;9.212;2024-03-02T06:56:08;7.60;73.50
19258;DHT22;9763;48.780;9.212;2024-03-02T06:59:31;7.70;73.70
19258;DHT22;9763;48.780;9.212;2024-03-02T07:02:55;7.80;73.80
19258;DHT22;9763;48.780;9.212;2024-03-02T07:06:19;7.50;73.40
19258;DHT22;9763;48.780;9.212;2024-03-02T07:09:42;7.90;74.00
19258;DHT22;9763;48.780;9.212;2024-03-02T07:13:08;8.00;74.30
19258;DHT22;9763;48.780;9.212;2024-03-02T07:16:31;8.10;74.40
19258;DHT22;9763;48.780;9.212;2024-03-02T07:19:57;8.20;74.60
19258;DHT22;9763;48.780;9.212;2024-03-02T07:23:20;8.40;74.90
19258;DHT22;9763;48.780;9.212;2024-03-02T07:26:46;8.40;74.80
19258;DHT22;9763;48.780;9.212;2024-03-02T07:30:15;8.50;75.00
19258;DHT22;9763;48.780;9.212;2024-03-02T07:33:39;8.60;75.10
19258;DHT22;9763;48.780;9.212;2024-03-02T07:37:03;8.80;75.40
19258;DHT22;9763;48.780;9.212;2024-03-02T07:40:28;9.00;75.60
19258;DHT22;9763;48.780;9.212;2024-03-02T07:43:52;9.10;75.40
19258;DHT22;9763;48.780;9.212;2024-03-02T07:47:16;9.40;75.60
19258;DHT22;9763;48.780;9.212;2024-03-02T07:50:40;9.60;75.90
19258;DHT22;9763;48.780;9.212;2024-03-02T07:54:05;9.40;75.70
19258;DHT22;9763;48.780;9.212;2024-03-02T07:57:28;9.60;75.70
19258;DHT22;9763;48.780;9.212;2024-03-02T08:00:52;9.90;75.80
19258;DHT22;9763;48.780;9.212;2024-03-02T08:04:18;9.80;75.60
19258;DHT22;9763;48.780;9.212;2024-03-02T08:07:42;9.90;75.60
19258;DHT22;9763;48.780;9.212;2024-03-02T08:11:07;10.00;74.60
19258;DHT22;9763;48.780;9.212;2024-03-02T08:14:31;10.40;74.80
19258;DHT22;9763;48.780;9.212;2024-03-02T08:17:54;10.20;74.50
19258;DHT22;9763;48.780;9.212;2024-03-02T08:21:19;10.30;74.60
19258;DHT22;9763;48.780;9.212;2024-03-02T08:24:43;10.40;74.60
19258;DHT22;9763;48.780;9.212;2024-03-02T08:28:07;10.80;75.10
19258;DHT22;9763;48.780;9.212;2024-03-02T08:34:55;10.70;74.90
19258;DHT22;9763;48.780;9.212;2024-03-02T08:41:44;11.10;76.50
19258;DHT22;9763;48.780;9.212;2024-03-02T08:45:09;12.10;81.70
19258;DHT22;9763;48.780;9.212;2024-03-02T08:48:33;12.90;85.80
19258;DHT22;9763;48.780;9.212;2024-03-02T08:51:56;13.80;89.90
19258;DHT22;9763;48.780;9.212;2024-03-02T08:55:21;14.80;90.50
19258;DHT22;9763;48.780;9.212;2024-03-02T08:58:45;15.80;86.50
19258;DHT22;9763;48.780;9.212;2024-03-02T09:02:09;16.40;81.50
19258;DHT22;9763;48.780;9.212;2024-03-02T09:05:32;16.70;79.40
19258;DHT22;9763;48.780;9.212;2024-03-02T09:12:21;17.00;81.00
19258;DHT22;9763;48.780;9.212;2024-03-02T09:15:45;18.20;85.30
19258;DHT22;9763;48.780;9.212;2024-03-02T09:22:33;19.60;80.00
19258;DHT22;9763;48.780;9.212;2024-03-02T09:25:56;20.50;83.70
19258;DHT22;9763;48.780;9.212;2024-03-02T09:29:21;21.20;81.90
19258;DHT22;9763;48.780;9.212;2024-03-02T09:32:45;22.00;81.00
19258;DHT22;9763;48.780;9.212;2024-03-02T09:36:17;22.60;80.10
19258;DHT22;9763;48.780;9.212;2024-03-02T09:39:43;23.30;77.20
19258;DHT22;9763;48.780;9.212;2024-03-02T09:43:08;23.80;76.30
19258;DHT22;9763;48.780;9.212;2024-03-02T09:46:33;24.30;75.20
19258;DHT22;9763;48.780;9.212;2024-03-02T09:49:58;24.80;73.20
19258;DHT22;9763;48.780;9.212;2024-03-02T09:53:23;25.10;73.50
19258;DHT22;9763;48.780;9.212;2024-03-02T09:56:49;25.50;72.30
19258;DHT22;9763;48.780;9.212;2024-03-02T10:00:15;25.90;72.20
19258;DHT22;9763;48.780;9.212;2024-03-02T10:03:40;26.20;71.40
19258;DHT22;9763;48.780;9.212;2024-03-02T10:07:11;26.50;70.10
19258;DHT22;9763;48.780;9.212;2024-03-02T10:10:37;26.90;66.70
19258;DHT22;9763;48.780;9.212;2024-03-02T10:14:07;27.10;67.40
19258;DHT22;9763;48.780;9.212;2024-03-02T10:17:32;27.20;64.90
19258;DHT22;9763;48.780;9.212;2024-03-02T10:21:13;27.20;65.70
19258;DHT22;9763;48.780;9.212;2024-03-02T10:24:38;27.30;65.20
19258;DHT22;9763;48.780;9.212;2024-03-02T10:28:03;27.40;66.60
19258;DHT22;9763;48.780;9.212;2024-03-02T10:31:28;27.60;65.90
19258;DHT22;9763;48.780;9.212;2024-03-02T10:34:52;27.70;65.90
19258;DHT22;9763;48.780;9.212;2024-03-02T10:38:17;27.80;65.90
19258;DHT22;9763;48.780;9.212;2024-03-02T10:41:41;27.70;62.70
19258;DHT22;9763;48.780;9.212;2024-03-02T10:45:06;28.00;64.30
19258;DHT22;9763;48.780;9.212;2024-03-02T10:48:33;28.00;64.00
19258;DHT22;9763;48.780;9.212;2024-03-02T10:52:00;28.00;62.20
19258;DHT22;9763;48.780;9.212;2024-03-02T10:55:25;27.90;62.00
19258;DHT22;9763;48.780;9.212;2024-03-02T10:58:51;27.80;61.40
19258;DHT22;9763;48.780;9.212;2024-03-02T11:02:25;27.60;60.80
19258;DHT22;9763;48.780;9.212;2024-03-02T11:05:51;27.50;61.40
19258;DHT22;9763;48.780;9.212;2024-03-02T11:09:19;27.40;62.40
19258;DHT22;9763;48.780;9.212;2024-03-02T11:12:51;27.30;61.10
19258;DHT22;9763;48.780;9.212;2024-03-02T11:16:26;27.40;62.00
19258;DHT22;9763;48.780;9.212;2024-03-02T11:19:58;27.40;61.20
19258;DHT22;9763;48.780;9.212;2024-03-02T11:23:31;27.50;61.40
19258;DHT22;9763;48.780;9.212;2024-03-02T11:26:55;27.60;59.20
19258;DHT22;9763;48.780;9.212;2024-03-02T11:30:52;27.50;60.60
19258;DHT22;9763;48.780;9.212;2024-03-02T11:34:28;27.50;58.00
19258;DHT22;9763;48.780;9.212;2024-03-02T11:37:53;27.40;58.00
19258;DHT22;9763;48.780;9.212;2024-03-02T11:41:16;27.40;59.90
19258;DHT22;9763;48.780;9.212;2024-03-02T11:44:42;27.30;59.20
19258;DHT22;9763;48.780;9.212;2024-03-02T11:48:12;27.30;59.10
19258;DHT22;9763;48.780;9.212;2024-03-02T11:51:38;27.30;58.00
19258;DHT22;9763;48.780;9.212;2024-03-02T11:55:17;27.10;58.10
19258;DHT22;9763;48.780;9.212;2024-03-02T11:58:43;27.00;57.10
19258;DHT22;9763;48.780;9.212;2024-03-02T12:02:14;26.90;56.20
19258;DHT22;9763;48.780;9.212;2024-03-02T12:05:42;26.60;54.50
19258;DHT22;9763;48.780;9.212;2024-03-02T12:09:06;26.30;54.20
19258;DHT22;9763;48.780;9.212;2024-03-02T12:12:33;25.90;54.00
19258;DHT22;9763;48.780;9.212;2024-03-02T12:15:57;25.50;52.20
19258;DHT22;9763;48.780;9.212;2024-03-02T12:19:22;25.10;52.90
19258;DHT22;9763;48.780;9.212;2024-03-02T12:22:46;24.80;52.90
19258;DHT22;9763;48.780;9.212;2024-03-02T12:26:10;24.50;53.30
19258;DHT22;9763;48.780;9.212;2024-03-02T12:29:34;24.50;53.30
19258;DHT22;9763;48.780;9.212;2024-03-02T12:32:57;24.10;52.60
19258;DHT22;9763;48.780;9.212;2024-03-02T12:36:22;24.50;52.40
19258;DHT22;9763;48.780;9.212;2024-03-02T12:39:47;23.50;50.00
19258;DHT22;9763;48.780;9.212;2024-03-02T12:43:10;23.50;50.70
19258;DHT22;9763;48.780;9.212;2024-03-02T12:46:34;22.80;50.70
19258;DHT22;9763;48.780;9.212;2024-03-02T12:49:59;22.50;50.50
19258;DHT22;9763;48.780;9.212;2024-03-02T12:53:23;22.30;50.80
19258;DHT22;9763;48.780;9.212;2024-03-02T12:56:48;22.10;50.60
19258;DHT22;9763;48.780;9.212;2024-03-02T13:00:12;21.90;50.30
19258;DHT22;9763;48.780;9.212;2024-03-02T13:03:37;21.70;50.20
19258;DHT22;9763;48.780;9.212;2024-03-02T13:07:02;21.50;49.90
19258;DHT22;9763;48.780;9.212;2024-03-02T13:10:27;21.30;49.90
19258;DHT22;9763;48.780;9.212;2024-03-02T13:13:52;21.20;50.00
19258;DHT22;9763;48.780;9.212;2024-03-02T13:17:17;21.10;49.70
19258;DHT22;9763;48.780;9.212;2024-03-02T13:20:40;20.90;49.40
19258;DHT22;9763;48.780;9.212;2024-03-02T13:24:05;20.80;49.60
19258;DHT22;9763;48.780;9.212;2024-03-02T13:27:29;20.70;49.90
19258;DHT22;9763;48.780;9.212;2024-03-02T13:30:55;20.60;49.80
19258;DHT22;9763;48.780;9.212;2024-03-02T13:34:19;20.50;49.60
19258;DHT22;9763;48.780;9.212;2024-03-02T13:37:42;20.50;49.80
19258;DHT22;9763;48.780;9.212;2024-03-02T13:41:06;20.40;49.90
19258;DHT22;9763;48.780;9.212;2024-03-02T13:44:29;20.30;49.50
19258;DHT22;9763;48.780;9.212;2024-03-02T13:47:55;20.30;49.80
19258;DHT22;9763;48.780;9.212;2024-03-02T13:51:18;20.20;49.60
19258;DHT22;9763;48.780;9.212;2024-03-02T13:54:43;20.10;49.80
19258;DHT22;9763;48.780;9.212;2024-03-02T13:58:08;20.10;50.40
19258;DHT22;9763;48.780;9.212;2024-03-02T14:01:33;20.00;50.00
19258;DHT22;9763;48.780;9.212;2024-03-02T14:04:58;20.00;49.70
19258;DHT22;9763;48.780;9.212;2024-03-02T14:08:22;20.00;49.80
19258;DHT22;9763;48.780;9.212;2024-03-02T14:11:46;20.00;49.80
19258;DHT22;9763;48.780;9.212;2024-03-02T14:15:11;19.90;49.90
19258;DHT22;9763;48.780;9.212;2024-03-02T14:18:35;19.90;49.80
19258;DHT22;9763;48.780;9.212;2024-03-02T14:22:00;19.90;49.80
19258;DHT22;9763;48.780;9.212;2024-03-02T14:25:24;19.80;49.60
19258;DHT22;9763;48.780;9.212;2024-03-02T14:28:47;19.80;49.70
19258;DHT22;9763;48.780;9.212;2024-03-02T14:32:13;19.70;49.60
19258;DHT22;9763;48.780;9.212;2024-03-02T14:35:37;19.70;49.60
19258;DHT22;9763;48.780;9.212;2024-03-02T14:39:02;19.60;49.60
19258;DHT22;9763;48.780;9.212;2024-03-02T14:42:26;19.60;49.70
19258;DHT22;9763;48.780;9.212;2024-03-02T14:45:53;19.50;49.80
19258;DHT22;9763;48.780;9.212;2024-03-02T14:49:17;19.40;49.50
19258;DHT22;9763;48.780;9.212;2024-03-02T14:52:41;19.40;49.30
19258;DHT22;9763;48.780;9.212;2024-03-02T14:56:08;19.40;49.20
19258;DHT22;9763;48.780;9.212;2024-03-02T14:59:33;19.30;48.60
19258;DHT22;9763;48.780;9.212;2024-03-02T15:02:57;19.10;48.40
19258;DHT22;9763;48.780;9.212;2024-03-02T15:06:20;19.10;48.50
19258;DHT22;9763;48.780;9.212;2024-03-02T15:09:44;19.00;48.10
19258;DHT22;9763;48.780;9.212;2024-03-02T15:13:09;18.90;48.40
19258;DHT22;9763;48.780;9.212;2024-03-02T15:16:33;18.80;48.40
19258;DHT22;9763;48.780;9.212;2024-03-02T15:19:57;18.70;48.50
19258;DHT22;9763;48.780;9.212;2024-03-02T15:23:20;18.70;48.60
19258;DHT22;9763;48.780;9.212;2024-03-02T15:26:44;18.60;48.10
19258;DHT22;9763;48.780;9.212;2024-03-02T15:30:09;18.60;48.30
19258;DHT22;9763;48.780;9.212;2024-03-02T15:33:33;18.50;48.20
19258;DHT22;9763;48.780;9.212;2024-03-02T15:36:57;18.40;48.00
19258;DHT22;9763;48.780;9.212;2024-03-02T15:40:21;18.30;48.00
19258;DHT22;9763;48.780;9.212;2024-03-02T15:43:45;18.20;48.00
19258;DHT22;9763;48.780;9.212;2024-03-02T15:47:10;18.10;48.10
19258;DHT22;9763;48.780;9.212;2024-03-02T15:50:34;18.00;48.10
19258;DHT22;9763;48.780;9.212;2024-03-02T15:53:59;17.90;48.20
19258;DHT22;9763;48.780;9.212;2024-03-02T15:57:23;17.80;48.10
19258;DHT22;9763;48.780;9.212;2024-03-02T16:00:47;17.70;48.30
19258;DHT22;9763;48.780;9.212;2024-03-02T16:04:12;17.60;48.30
19258;DHT22;9763;48.780;9.212;2024-03-02T16:07:36;17.50;48.10
19258;DHT22;9763;48.780;9.212;2024-03-02T16:11:00;17.40;48.30
19258;DHT22;9763;48.780;9.212;2024-03-02T16:28:03;17.40;48.40
19258;DHT22;9763;48.780;9.212;2024-03-02T16:45:10;17.00;49.00
19258;DHT22;9763;48.780;9.212;2024-03-02T16:48:33;16.70;49.70
19258;DHT22;9763;48.780;9.212;2024-03-02T16:51:57;16.60;49.60
19258;DHT22;9763;48.780;9.212;2024-03-02T16:55:23;16.50;49.70
19258;DHT22;9763;48.780;9.212;2024-03-02T16:58:47;16.50;49.90
19258;DHT22;9763;48.780;9.212;2024-03-02T17:02:11;16.40;50.00
19258;DHT22;9763;48.780;9.212;2024-03-02T17:05:35;16.40;50.10
19258;DHT22;9763;48.780;9.212;2024-03-02T17:08:58;16.30;50.30
19258;DHT22;9763;48.780;9.212;2024-03-02T17:12:24;16.30;50.50
19258;DHT22;9763;48.780;9.212;2024-03-02T17:15:47;16.20;50.60
19258;DHT22;9763;48.780;9.212;2024-03-02T17:19:11;16.10;50.70
19258;DHT22;9763;48.780;9.212;2024-03-02T17:22:34;16.10;50.80
19258;DHT22;9763;48.780;9.212;2024-03-02T17:25:58;16.00;50.90
19258;DHT22;9763;48.780;9.212;2024-03-02T17:29:23;16.00;51.00
19258;DHT22;9763;48.780;9.212;2024-03-02T17:32:47;15.90;51.50
19258;DHT22;9763;48.780;9.212;2024-03-02T17:36:11;15.80;51.10
19258;DHT22;9763;48.780;9.212;2024-03-02T17:39:35;15.80;51.40
19258;DHT22;9763;48.780;9.212;2024-03-02T17:42:58;15.70;51.50
19258;DHT22;9763;48.780;9.212;2024-03-02T17:46:24;15.70;51.90
19258;DHT22;9763;48.780;9.212;2024-03-02T17:49:47;15.60;52.00
19258;DHT22;9763;48.780;9.212;2024-03-02T17:53:11;15.60;52.20
19258;DHT22;9763;48.780;9.212;2024-03-02T17:56:35;15.60;52.40
19258;DHT22;9763;48.780;9.212;2024-03-02T17:59:58;15.60;52.60
19258;DHT22;9763;48.780;9.212;2024-03-02T18:03:25;15.50;52.80
19258;DHT22;9763;48.780;9.212;2024-03-02T18:06:49;15.50;52.90
19258;DHT22;9763;48.780;9.212;2024-03-02T18:10:12;15.50;53.00
19258;DHT22;9763;48.780;9.212;2024-03-02T18:13:36;15.40;53.10
19258;DHT22;9763;48.780;9.212;2024-03-02T18:16:59;15.40;53.30
19258;DHT22;9763;48.780;9.212;2024-03-02T18:20:24;15.40;53.40
19258;DHT22;9763;48.780;9.212;2024-03-02T18:23:48;15.40;53.70
19258;DHT22;9763;48.780;9.212;2024-03-02T18:27:12;15.30;53.60
19258;DHT22;9763;48.780;9.212;2024-03-02T18:30:36;15.30;53.80
19258;DHT22;9763;48.780;9.212;2024-03-02T18:33:59;15.30;53.90
19258;DHT22;9763;48.780;9.212;2024-03-02T18:37:24;15.30;53.90
19258;DHT22;9763;48.780;9.212;2024-03-02T18:40:48;15.50;54.20
19258;DHT22;9763;48.780;9.212;2024-03-02T18:44:11;15.20;54.10
19258;DHT22;9763;48.780;9.212;2024-03-02T18:47:35;15.20;54.30
19258;DHT22;9763;48.780;9.212;2024-03-02T18:51:05;15.10;54.30
19258;DHT22;9763;48.780;9.212;2024-03-02T18:54:31;15.10;54.50
19258;DHT22;9763;48.780;9.212;2024-03-02T18:57:54;15.10;54.50
19258;DHT22;9763;48.780;9.212;2024-03-02T19:01:19;15.10;54.80
19258;DHT22;9763;48.780;9.212;2024-03-02T19:04:43;15.00;54.60
19258;DHT22;9763;48.780;9.212;2024-03-02T19:08:09;15.00;54.80
19258;DHT22;9763;48.780;9.212;2024-03-02T19:11:36;14.90;54.70
19258;DHT22;9763;48.780;9.212;2024-03-02T19:15:00;14.90;54.80
19258;DHT22;9763;48.780;9.212;2024-03-02T19:18:24;14.90;54.90
19258;DHT22;9763;48.780;9.212;2024-03-02T19:21:47;14.80;55.00
19258;DHT22;9763;48.780;9.212;2024-03-02T19:25:23;14.80;55.00
19258;DHT22;9763;48.780;9.212;2024-03-02T19:28:48;14.70;55.60
19258;DHT22;9763;48.780;9.212;2024-03-02T19:32:11;15.10;55.40
19258;DHT22;9763;48.780;9.212;2024-03-02T19:35:42;14.70;55.20
19258;DHT22;9763;48.780;9.212;2024-03-02T19:39:05;14.70;55.20
19258;DHT22;9763;48.780;9.212;2024-03-02T19:42:30;14.60;55.20
19258;DHT22;9763;48.780;9.212;2024-03-02T19:45:55;14.60;55.20
19258;DHT22;9763;48.780;9.212;2024-03-02T19:49:18;14.60;55.30
19258;DHT22;9763;48.780;9.212;2024-03-02T19:52:42;14.60;55.30
19258;DHT22;9763;48.780;9.212;2024-03-02T19:56:07;14.50;55.20
19258;DHT22;9763;48.780;9.212;2024-03-02T19:59:30;14.50;55.30
19258;DHT22;9763;48.780;9.212;2024-03-02T20:02:55;14.40;55.30
19258;DHT22;9763;48.780;9.212;2024-03-02T20:06:19;14.40;55.40
19258;DHT22;9763;48.780;9.212;2024-03-02T20:09:42;14.40;55.40
19258;DHT22;9763;48.780;9.212;2024-03-02T20:13:07;14.30;55.40
19258;DHT22;9763;48.780;9.212;2024-03-02T20:16:30;14.20;55.40
19258;DHT22;9763;48.780;9.212;2024-03-02T20:19:55;14.20;56.00
19258;DHT22;9763;48.780;9.212;2024-03-02T20:23:19;14.10;55.50
19258;DHT22;9763;48.780;9.212;2024-03-02T20:26:42;14.10;55.60
19258;DHT22;9763;48.780;9.212;2024-03-02T20:30:08;14.00;55.60
19258;DHT22;9763;48.780;9.212;2024-03-02T20:33:33;13.90;55.60
19258;DHT22;9763;48.780;9.212;2024-03-02T20:36:58;13.90;55.70
19258;DHT22;9763;48.780;9.212;2024-03-02T20:40:23;13.90;55.90
19258;DHT22;9763;48.780;9.212;2024-03-02T20:43:47;13.80;55.90
19258;DHT22;9763;48.780;9.212;2024-03-02T20:47:10;13.80;56.00
19258;DHT22;9763;48.780;9.212;2024-03-02T20:50:34;13.70;56.00
19258;DHT22;9763;48.780;9.212;2024-03-02T20:53:59;13.70;56.10
19258;DHT22;9763;48.780;9.212;2024-03-02T20:57:23;13.60;56.20
19258;DHT22;9763;48.780;9.212;2024-03-02T21:00:46;13.60;56.30
19258;DHT22;9763;48.780;9.212;2024-03-02T21:04:10;13.60;56.30
19258;DHT22;9763;48.780;9.212;2024-03-02T21:07:36;13.50;56.30
19258;DHT22;9763;48.780;9.212;2024-03-02T21:11:02;13.50;56.40
19258;DHT22;9763;48.780;9.212;2024-03-02T21:14:27;13.40;56.50
19258;DHT22;9763;48.780;9.212;2024-03-02T21:17:50;13.60;56.70
19258;DHT22;9763;48.780;9.212;2024-03-02T21:21:14;13.40;56.60
19258;DHT22;9763;48.780;9.212;2024-03-02T21:24:37;13.40;56.70
19258;DHT22;9763;48.780;9.212;2024-03-02T21:28:05;13.30;56.70
19258;DHT22;9763;48.780;9.212;2024-03-02T21:31:28;13.30;56.80
19258;DHT22;9763;48.780;9.212;2024-03-02T21:34:52;13.20;56.90
19258;DHT22;9763;48.780;9.212;2024-03-02T21:38:15;13.20;57.00
19258;DHT22;9763;48.780;9.212;2024-03-02T21:41:39;13.10;57.00
19258;DHT22;9763;48.780;9.212;2024-03-02T21:45:05;13.10;57.10
19258;DHT22;9763;48.780;9.212;2024-03-02T21:48:29;13.10;57.30
19258;DHT22;9763;48.780;9.212;2024-03-02T21:51:53;13.10;57.40
19258;DHT22;9763;48.780;9.212;2024-03-02T21:55:16;13.10;57.50
19258;DHT22;9763;48.780;9.212;2024-03-02T21:58:40;13.10;57.60
19258;DHT22;9763;48.780;9.212;2024-03-02T22:02:05;13.10;57.70
19258;DHT22;9763;48.780;9.212;2024-03-02T22:05:28;13.10;57.90
19258;DHT22;9763;48.780;9.212;2024-03-02T22:08:52;13.10;58.00
19258;DHT22;9763;48.780;9.212;2024-03-02T22:12:16;13.00;58.20
19258;DHT22;9763;48.780;9.212;2024-03-02T22:15:39;13.00;58.00
19258;DHT22;9763;48.780;9.212;2024-03-02T22:19:04;13.00;58.00
19258;DHT22;9763;48.780;9.212;2024-03-02T22:22:28;13.00;58.10
19258;DHT22;9763;48.780;9.212;2024-03-02T22:25:52;13.00;58.20
19258;DHT22;9763;48.780;9.212;2024-03-02T22:29:15;13.00;58.20
19258;DHT22;9763;48.780;9.212;2024-03-02T22:32:39;13.00;58.30
19258;DHT22;9763;48.780;9.212;2024-03-02T22:36:06;12.90;58.20
19258;DHT22;9763;48.780;9.212;2024-03-02T22:39:30;12.90;58.20
19258;DHT22;9763;48.780;9.212;2024-03-02T22:42:54;12.90;58.30
19258;DHT22;9763;48.780;9.212;2024-03-02T22:46:20;12.90;58.30